createdAt,value
2022-11-25T00:00:50.980Z,3.05
2022-11-25T00:03:18.762Z,2.85
2022-11-25T00:05:46.607Z,3.22
2022-11-25T00:08:14.355Z,3.42
2022-11-25T00:10:42.086Z,3.35
2022-11-25T00:13:11.184Z,3.13
2022-11-25T00:15:38.937Z,3.15
2022-11-25T00:18:06.666Z,3.63
2022-11-25T00:20:34.451Z,3.70
2022-11-25T00:23:02.181Z,3.15
2022-11-25T00:25:29.924Z,2.88
2022-11-25T00:27:57.622Z,3.50
2022-11-25T00:30:26.780Z,2.78
2022-11-25T00:32:54.606Z,3.05
2022-11-25T00:35:22.442Z,2.80
2022-11-25T00:37:50.217Z,3.45
2022-11-25T00:40:18.196Z,3.35
2022-11-25T00:43:03.664Z,2.83
2022-11-25T00:45:32.858Z,3.58
2022-11-25T00:48:00.619Z,3.65
2022-11-25T00:50:28.350Z,2.97
2022-11-25T00:52:56.077Z,2.72
2022-11-25T00:55:23.831Z,2.83
2022-11-25T00:57:51.548Z,2.95
2022-11-25T01:00:19.650Z,3.20
2022-11-25T01:02:49.226Z,2.80
2022-11-25T01:05:17.071Z,3.05
2022-11-25T01:07:44.924Z,3.08
2022-11-25T01:10:12.748Z,3.10
2022-11-25T01:12:40.491Z,3.15
2022-11-25T01:15:09.755Z,2.97
2022-11-25T01:17:37.678Z,2.85
2022-11-25T01:20:08.451Z,3.47
2022-11-25T01:22:36.236Z,3.63
2022-11-25T01:25:04.062Z,3.15
2022-11-25T01:27:31.767Z,3.35
2022-11-25T01:29:59.528Z,3.55
2022-11-25T01:32:27.246Z,3.13
2022-11-25T01:34:54.991Z,3.80
2022-11-25T01:37:24.169Z,3.05
2022-11-25T01:39:51.960Z,3.50
2022-11-25T01:42:20.671Z,3.25
2022-11-25T01:45:28.767Z,3.15
2022-11-25T01:48:01.707Z,2.95
2022-11-25T01:50:30.906Z,2.92
2022-11-25T01:53:01.473Z,3.10
2022-11-25T01:55:31.962Z,2.90
2022-11-25T01:58:04.433Z,2.95
2022-11-25T02:00:32.634Z,3.05
2022-11-25T02:03:01.306Z,2.78
2022-11-25T02:05:38.593Z,2.67
2022-11-25T02:08:09.300Z,2.75
2022-11-25T02:13:05.294Z,2.35
2022-11-25T02:15:35.240Z,3.20
2022-11-25T02:18:05.639Z,3.00
2022-11-25T02:20:33.620Z,2.92
2022-11-25T02:23:08.567Z,2.70
2022-11-25T02:25:39.330Z,2.72
2022-11-25T02:28:15.319Z,3.30
2022-11-25T02:30:44.363Z,3.00
2022-11-25T02:33:13.100Z,3.20
2022-11-25T02:35:42.485Z,3.20
2022-11-25T02:38:13.330Z,3.38
2022-11-25T02:40:47.027Z,2.85
2022-11-25T02:43:15.452Z,2.85
2022-11-25T02:45:53.999Z,3.08
2022-11-25T02:48:34.523Z,3.08
2022-11-25T02:51:12.567Z,3.92
2022-11-25T02:53:40.485Z,3.03
2022-11-25T02:56:10.790Z,4.00
2022-11-25T02:58:39.447Z,4.10
2022-11-25T03:01:07.655Z,3.05
2022-11-25T03:03:35.461Z,3.38
2022-11-25T03:06:03.260Z,2.88
2022-11-25T03:08:31.007Z,3.13
2022-11-25T03:10:59.404Z,3.38
2022-11-25T03:13:30.122Z,2.92
2022-11-25T03:15:57.945Z,3.00
2022-11-25T03:18:25.816Z,2.60
2022-11-25T03:20:54.018Z,3.25
2022-11-25T03:23:24.777Z,3.28
2022-11-25T03:25:54.638Z,3.10
2022-11-25T03:28:23.271Z,2.95
2022-11-25T03:30:52.448Z,2.92
2022-11-25T03:33:20.378Z,3.22
2022-11-25T03:35:49.775Z,2.97
2022-11-25T03:38:19.295Z,2.80
2022-11-25T03:40:48.288Z,2.85
2022-11-25T03:43:16.103Z,2.80
2022-11-25T03:45:44.100Z,3.10
2022-11-25T03:48:13.308Z,2.85
2022-11-25T03:50:42.197Z,3.20
2022-11-25T03:53:10.418Z,3.15
2022-11-25T03:55:38.315Z,3.08
2022-11-25T03:58:06.188Z,3.22
2022-11-25T04:00:34.405Z,3.08
2022-11-25T04:03:04.655Z,3.00
2022-11-25T04:05:35.127Z,2.72
2022-11-25T04:08:07.523Z,2.97
2022-11-25T04:10:36.764Z,3.03
2022-11-25T04:13:05.031Z,2.90
2022-11-25T04:15:37.659Z,2.80
2022-11-25T04:18:06.613Z,2.95
2022-11-25T04:20:36.387Z,2.70
2022-11-25T04:23:06.614Z,2.33
2022-11-25T04:25:37.886Z,2.35
2022-11-25T04:28:12.828Z,2.20
2022-11-25T04:30:41.894Z,2.25
2022-11-25T04:33:09.851Z,2.33
2022-11-25T04:35:39.110Z,2.75
2022-11-25T04:38:08.246Z,2.47
2022-11-25T04:40:37.916Z,1.90
2022-11-25T04:43:18.024Z,2.20
2022-11-25T04:48:42.189Z,1.77
2022-11-25T04:51:11.768Z,1.88
2022-11-25T04:53:40.235Z,1.90
2022-11-25T04:56:10.411Z,1.67
2022-11-25T04:59:01.203Z,1.40
2022-11-25T05:01:29.099Z,1.50
2022-11-25T05:04:05.324Z,1.48
2022-11-25T05:06:36.544Z,1.55
2022-11-25T05:09:05.395Z,1.50
2022-11-25T05:11:36.150Z,1.50
2022-11-25T05:14:04.028Z,1.55
2022-11-25T05:16:32.401Z,1.20
2022-11-25T05:19:01.198Z,1.92
2022-11-25T05:21:29.007Z,1.30
2022-11-25T05:23:58.155Z,1.30
2022-11-25T05:26:29.124Z,1.85
2022-11-25T05:28:59.517Z,1.67
2022-11-25T05:31:27.553Z,1.30
2022-11-25T05:33:55.318Z,1.40
2022-11-25T05:36:24.509Z,1.40
2022-11-25T05:38:52.230Z,1.40
2022-11-25T05:41:30.668Z,1.30
2022-11-25T05:43:59.400Z,1.30
2022-11-25T05:46:27.275Z,1.38
2022-11-25T05:48:57.328Z,1.40
2022-11-25T05:51:25.635Z,1.50
2022-11-25T05:53:55.258Z,1.50
2022-11-25T05:56:27.056Z,1.50
2022-11-25T05:59:20.838Z,1.25
2022-11-25T06:02:04.973Z,1.50
2022-11-25T06:04:33.490Z,1.50
2022-11-25T06:07:01.478Z,1.58
2022-11-25T06:09:30.239Z,1.77
2022-11-25T06:11:58.158Z,1.80
2022-11-25T06:14:27.303Z,1.80
2022-11-25T06:16:55.781Z,1.45
2022-11-25T06:19:32.580Z,1.77
2022-11-25T06:22:00.344Z,1.90
2022-11-25T06:24:30.246Z,1.95
2022-11-25T06:27:02.629Z,1.75
2022-11-25T06:29:31.830Z,1.92
2022-11-25T06:32:00.678Z,2.00
2022-11-25T06:34:42.882Z,1.80
2022-11-25T06:37:28.594Z,2.10
2022-11-25T06:39:56.373Z,1.85
2022-11-25T06:42:24.111Z,2.15
2022-11-25T06:44:54.219Z,2.00
2022-11-25T06:47:22.222Z,2.20
2022-11-25T06:49:50.321Z,2.10
2022-11-25T06:52:18.135Z,2.33
2022-11-25T06:54:45.960Z,2.55
2022-11-25T06:57:17.473Z,2.63
2022-11-25T06:59:45.499Z,2.45
2022-11-25T07:02:14.951Z,2.22
2022-11-25T07:04:42.723Z,2.38
2022-11-25T07:07:10.567Z,2.58
2022-11-25T07:09:38.508Z,2.22
2022-11-25T07:12:06.830Z,2.20
2022-11-25T07:14:34.930Z,3.00
2022-11-25T07:17:06.171Z,2.40
2022-11-25T07:19:38.006Z,2.20
2022-11-25T07:22:05.740Z,2.65
2022-11-25T07:24:33.978Z,2.45
2022-11-25T07:27:01.899Z,2.70
2022-11-25T07:29:54.175Z,2.65
2022-11-25T07:32:18.431Z,2.42
2022-11-25T07:34:47.544Z,2.63
2022-11-25T07:37:15.279Z,2.42
2022-11-25T07:39:43.618Z,2.55
2022-11-25T07:42:11.343Z,2.63
2022-11-25T07:44:39.093Z,3.00
2022-11-25T07:47:34.882Z,2.97
2022-11-25T07:50:04.783Z,2.78
2022-11-25T07:52:32.512Z,2.50
2022-11-25T07:55:00.295Z,2.85
2022-11-25T07:57:28.124Z,3.15
2022-11-25T07:59:55.967Z,2.70
2022-11-25T08:02:23.779Z,2.45
2022-11-25T08:04:51.621Z,3.05
2022-11-25T08:07:20.788Z,2.88
2022-11-25T08:09:48.595Z,2.88
2022-11-25T08:12:16.417Z,2.70
2022-11-25T08:14:44.150Z,2.60
2022-11-25T08:17:12.126Z,3.00
2022-11-25T08:19:40.610Z,2.63
2022-11-25T08:22:08.425Z,2.70
2022-11-25T08:24:37.590Z,3.05
2022-11-25T08:27:05.335Z,2.90
2022-11-25T08:29:33.143Z,2.50
2022-11-25T08:32:00.870Z,2.88
2022-11-25T08:34:28.648Z,2.90
2022-11-25T08:37:01.781Z,2.70
2022-11-25T08:42:20.122Z,2.58
2022-11-25T08:44:52.727Z,2.80
2022-11-25T08:47:20.542Z,2.72
2022-11-25T08:49:52.040Z,2.60
2022-11-25T08:52:20.308Z,2.97
2022-11-25T08:54:48.067Z,2.50
2022-11-25T08:57:16.081Z,2.45
2022-11-25T08:59:45.214Z,2.92
2022-11-25T09:02:15.832Z,2.53
2022-11-25T09:04:43.673Z,2.80
2022-11-25T09:07:11.606Z,2.75
2022-11-25T09:09:39.911Z,2.75
2022-11-25T09:12:08.083Z,2.65
2022-11-25T09:14:35.880Z,2.60
2022-11-25T09:17:09.805Z,2.60
2022-11-25T09:19:37.668Z,2.45
2022-11-25T09:22:05.868Z,2.50
2022-11-25T09:24:33.646Z,2.50
2022-11-25T09:27:01.750Z,2.55
2022-11-25T09:29:30.196Z,2.50
2022-11-25T09:31:58.140Z,2.50
2022-11-25T09:34:27.300Z,2.50
2022-11-25T09:36:55.330Z,2.45
2022-11-25T09:39:28.031Z,2.45
2022-11-25T09:42:24.626Z,2.20
2022-11-25T09:45:25.191Z,2.65
2022-11-25T09:48:04.840Z,2.72
2022-11-25T09:50:53.522Z,2.65
2022-11-25T09:53:32.776Z,2.80
2022-11-25T09:56:04.609Z,2.55
2022-11-25T09:58:36.816Z,2.35
2022-11-25T10:01:07.902Z,2.50
2022-11-25T10:06:16.048Z,2.80
2022-11-25T10:08:46.433Z,2.50
2022-11-25T10:11:22.940Z,3.15
2022-11-25T10:13:55.814Z,2.67
2022-11-25T10:16:34.444Z,2.42
2022-11-25T10:19:03.963Z,2.80
2022-11-25T10:21:33.115Z,2.70
2022-11-25T10:24:00.987Z,2.67
2022-11-25T10:26:36.742Z,2.90
2022-11-25T10:29:32.062Z,2.65
2022-11-25T10:32:13.680Z,2.30
2022-11-25T10:34:46.804Z,2.58
2022-11-25T10:37:27.384Z,2.42
2022-11-25T10:39:55.175Z,2.85
2022-11-25T10:42:25.595Z,2.65
2022-11-25T10:44:54.814Z,2.53
2022-11-25T10:47:36.148Z,2.65
2022-11-25T10:50:18.514Z,2.72
2022-11-25T10:52:55.031Z,2.63
2022-11-25T10:55:26.022Z,2.80
2022-11-25T11:00:28.606Z,3.80
2022-11-25T11:02:57.602Z,2.55
2022-11-25T11:05:29.598Z,2.80
2022-11-25T11:08:16.977Z,2.83
2022-11-25T11:10:45.185Z,2.55
2022-11-25T11:13:25.767Z,3.15
2022-11-25T11:15:55.028Z,2.40
2022-11-25T11:18:27.380Z,2.65
2022-11-25T11:20:56.913Z,2.72
2022-11-25T11:23:27.486Z,2.92
2022-11-25T11:26:01.897Z,2.70
2022-11-25T11:28:38.461Z,3.10
2022-11-25T11:31:15.295Z,3.13
2022-11-25T11:33:53.532Z,2.83
2022-11-25T11:36:35.456Z,3.05
2022-11-25T11:39:25.640Z,2.85
2022-11-25T11:42:00.620Z,2.67
2022-11-25T11:44:36.479Z,3.20
2022-11-25T11:47:18.567Z,2.22
2022-11-25T11:50:09.649Z,2.65
2022-11-25T11:52:49.187Z,2.45
2022-11-25T11:55:29.728Z,2.47
2022-11-25T11:58:05.802Z,2.63
2022-11-25T12:00:43.620Z,2.20
2022-11-25T12:03:15.586Z,2.88
2022-11-25T12:05:43.748Z,2.60
2022-11-25T12:08:17.008Z,2.45
2022-11-25T12:10:51.672Z,2.72
2022-11-25T12:13:25.470Z,2.33
2022-11-25T12:15:57.646Z,2.17
2022-11-25T12:18:41.109Z,2.05
2022-11-25T12:21:15.820Z,1.85
2022-11-25T12:23:51.708Z,2.17
2022-11-25T12:26:25.580Z,2.03
2022-11-25T12:29:00.003Z,2.55
2022-11-25T12:31:31.247Z,2.03
2022-11-25T12:34:06.662Z,2.17
2022-11-25T12:36:37.520Z,2.40
2022-11-25T12:39:11.623Z,2.03
2022-11-25T12:41:48.879Z,2.05
2022-11-25T12:44:22.671Z,2.20
2022-11-25T12:46:52.466Z,2.00
2022-11-25T12:49:22.775Z,2.10
2022-11-25T12:52:17.164Z,2.10
2022-11-25T12:55:03.769Z,2.33
2022-11-25T12:58:01.243Z,2.55
2022-11-25T13:00:49.106Z,2.08
2022-11-25T13:03:40.872Z,2.00
2022-11-25T13:06:24.827Z,2.00
2022-11-25T13:09:01.092Z,1.95
2022-11-25T13:11:51.665Z,2.10
2022-11-25T13:14:27.117Z,2.33
2022-11-25T13:16:58.316Z,2.30
2022-11-25T13:19:26.608Z,1.90
2022-11-25T13:22:02.561Z,1.95
2022-11-25T13:24:33.781Z,1.73
2022-11-25T13:27:02.438Z,2.13
2022-11-25T13:30:04.045Z,1.90
2022-11-25T13:32:43.248Z,1.70
2022-11-25T13:35:32.759Z,1.65
2022-11-25T13:38:00.554Z,2.17
2022-11-25T13:40:40.624Z,1.77
2022-11-25T13:43:23.169Z,2.20
2022-11-25T13:45:51.347Z,1.77
2022-11-25T13:48:23.710Z,1.90
2022-11-25T13:51:10.571Z,1.80
2022-11-25T13:53:40.241Z,2.15
2022-11-25T13:56:17.006Z,1.77
2022-11-25T13:59:18.107Z,1.80
2022-11-25T14:01:55.597Z,2.13
2022-11-25T14:04:42.498Z,1.92
2022-11-25T14:07:28.992Z,2.05
2022-11-25T14:10:17.152Z,2.00
2022-11-25T14:13:04.182Z,1.95
2022-11-25T14:15:44.156Z,1.90
2022-11-25T14:19:00.456Z,1.90
2022-11-25T14:21:32.991Z,2.08
2022-11-25T14:24:24.570Z,2.10
2022-11-25T14:26:53.801Z,2.75
2022-11-25T14:29:24.683Z,2.15
2022-11-25T14:34:28.379Z,1.92
2022-11-25T14:37:02.460Z,2.30
2022-11-25T14:39:35.477Z,2.40
2022-11-25T14:42:07.920Z,1.67
2022-11-25T14:44:41.679Z,1.90
2022-11-25T14:47:09.423Z,2.05
2022-11-25T14:49:55.429Z,1.92
2022-11-25T14:52:36.733Z,1.77
2022-11-25T14:55:06.424Z,2.28
2022-11-25T14:57:36.952Z,2.03
2022-11-25T15:00:08.106Z,2.45
2022-11-25T15:02:38.049Z,3.55
2022-11-25T15:05:18.386Z,2.13
2022-11-25T15:07:57.701Z,1.98
2022-11-25T15:10:33.581Z,2.53
2022-11-25T15:13:10.727Z,2.90
2022-11-25T15:15:38.551Z,2.40
2022-11-25T15:18:07.438Z,2.78
2022-11-25T15:20:35.726Z,3.08
2022-11-25T15:23:05.734Z,2.50
2022-11-25T15:25:33.434Z,2.20
2022-11-25T15:28:01.255Z,3.17
2022-11-25T15:30:30.144Z,3.75
2022-11-25T15:32:58.442Z,3.85
2022-11-25T15:35:27.950Z,4.53
2022-11-25T15:37:55.824Z,4.40
2022-11-25T15:40:37.510Z,4.70
2022-11-25T15:43:07.928Z,5.05
2022-11-25T15:45:43.441Z,5.80
2022-11-25T15:48:18.099Z,5.00
2022-11-25T15:50:46.049Z,5.18
2022-11-25T15:53:30.231Z,5.25
2022-11-25T15:56:02.955Z,5.65
2022-11-25T15:58:31.196Z,4.18
2022-11-25T16:01:03.592Z,4.38
2022-11-25T16:03:32.619Z,4.03
2022-11-25T16:06:01.899Z,4.30
2022-11-25T16:08:37.245Z,4.30
2022-11-25T16:11:15.995Z,3.88
2022-11-25T16:13:44.065Z,4.45
2022-11-25T16:16:21.496Z,3.85
2022-11-25T16:19:12.331Z,3.83
2022-11-25T16:21:44.339Z,4.10
2022-11-25T16:24:32.757Z,4.35
2022-11-25T16:27:05.214Z,4.55
2022-11-25T16:29:35.743Z,5.38
2022-11-25T16:32:14.569Z,4.88
2022-11-25T16:34:43.004Z,3.15
2022-11-25T16:37:10.766Z,3.38
2022-11-25T16:39:39.568Z,3.20
2022-11-25T16:42:16.944Z,3.35
2022-11-25T16:44:48.554Z,3.95
2022-11-25T16:47:16.783Z,4.05
2022-11-25T16:49:44.597Z,4.47
2022-11-25T16:52:12.501Z,3.88
2022-11-25T16:54:41.084Z,5.20
2022-11-25T16:57:17.296Z,5.38
2022-11-25T16:59:45.749Z,5.15
2022-11-25T17:02:19.165Z,6.35
2022-11-25T17:04:48.133Z,6.85
2022-11-25T17:07:32.604Z,6.03
2022-11-25T17:10:01.160Z,5.45
2022-11-25T17:12:34.188Z,6.47
2022-11-25T17:15:04.568Z,4.88
2022-11-25T17:17:32.874Z,3.78
2022-11-25T17:20:00.812Z,4.72
2022-11-25T17:22:33.328Z,5.03
2022-11-25T17:25:02.588Z,4.93
2022-11-25T17:27:33.777Z,5.32
2022-11-25T17:30:04.388Z,5.10
2022-11-25T17:32:33.042Z,8.05
2022-11-25T17:35:00.900Z,11.07
2022-11-25T17:37:30.975Z,8.68
2022-11-25T17:39:58.663Z,6.95
2022-11-25T17:42:31.219Z,6.10
2022-11-25T17:45:01.543Z,6.25
2022-11-25T17:47:29.332Z,5.63
2022-11-25T17:49:57.820Z,5.50
2022-11-25T17:52:25.667Z,5.63
2022-11-25T17:54:53.410Z,5.13
2022-11-25T17:57:23.312Z,4.97
2022-11-25T17:59:51.231Z,4.60
2022-11-25T18:02:22.117Z,5.45
2022-11-25T18:04:50.481Z,4.43
2022-11-25T18:07:19.031Z,4.68
2022-11-25T18:09:46.913Z,4.35
2022-11-25T18:12:19.055Z,4.40
2022-11-25T18:14:46.944Z,4.63
2022-11-25T18:17:18.791Z,4.57
2022-11-25T18:19:54.518Z,6.43
2022-11-25T18:22:24.577Z,6.28
2022-11-25T18:24:52.882Z,6.43
2022-11-25T18:27:24.728Z,5.97
2022-11-25T18:29:53.290Z,5.63
2022-11-25T18:32:21.415Z,6.05
2022-11-25T18:34:51.088Z,5.28
2022-11-25T18:37:18.984Z,5.90
2022-11-25T18:39:46.760Z,7.20
2022-11-25T18:42:24.675Z,5.55
2022-11-25T18:44:53.322Z,5.43
2022-11-25T18:47:21.127Z,5.28
2022-11-25T18:49:55.516Z,5.20
2022-11-25T18:52:24.480Z,4.93
2022-11-25T18:54:52.291Z,5.03
2022-11-25T18:57:20.418Z,5.70
2022-11-25T19:00:10.207Z,5.57
2022-11-25T19:02:36.373Z,5.68
2022-11-25T19:05:15.788Z,5.22
2022-11-25T19:07:43.559Z,5.55
2022-11-25T19:10:13.801Z,4.55
2022-11-25T19:12:44.467Z,4.43
2022-11-25T19:15:16.456Z,4.50
2022-11-25T19:17:46.745Z,4.20
2022-11-25T19:20:20.118Z,4.20
2022-11-25T19:22:48.780Z,4.57
2022-11-25T19:25:16.844Z,4.30
2022-11-25T19:27:48.032Z,4.32
2022-11-25T19:32:46.390Z,5.68
2022-11-25T19:35:17.995Z,5.78
2022-11-25T19:37:46.056Z,7.28
2022-11-25T19:40:15.748Z,6.97
2022-11-25T19:42:43.836Z,6.53
2022-11-25T19:45:15.697Z,6.55
2022-11-25T19:47:44.416Z,5.78
2022-11-25T19:50:20.866Z,5.38
2022-11-25T19:52:49.841Z,5.22
2022-11-25T19:55:19.741Z,5.40
2022-11-25T19:57:47.954Z,4.88
2022-11-25T20:00:17.748Z,5.72
2022-11-25T20:02:46.697Z,5.03
2022-11-25T20:05:20.683Z,5.70
2022-11-25T20:07:48.651Z,5.70
2022-11-25T20:10:20.075Z,6.13
2022-11-25T20:12:48.377Z,5.55
2022-11-25T20:15:16.443Z,5.13
2022-11-25T20:17:47.311Z,4.93
2022-11-25T20:20:21.288Z,5.22
2022-11-25T20:22:55.884Z,6.03
2022-11-25T20:25:24.031Z,13.07
2022-11-25T20:27:51.815Z,9.50
2022-11-25T20:30:23.178Z,9.45
2022-11-25T20:32:51.083Z,7.60
2022-11-25T20:35:21.160Z,6.68
2022-11-25T20:37:57.412Z,6.22
2022-11-25T20:40:33.019Z,5.82
2022-11-25T20:43:00.978Z,5.05
2022-11-25T20:45:28.867Z,4.88
2022-11-25T20:47:56.704Z,5.07
2022-11-25T20:50:26.148Z,4.93
2022-11-25T20:52:53.947Z,4.78
2022-11-25T20:55:23.831Z,4.93
2022-11-25T20:57:52.745Z,4.93
2022-11-25T21:00:22.771Z,6.13
2022-11-25T21:02:51.011Z,5.90
2022-11-25T21:05:19.295Z,5.30
2022-11-25T21:07:50.743Z,4.97
2022-11-25T21:10:23.231Z,5.53
2022-11-25T21:12:51.705Z,4.60
2022-11-25T21:15:21.895Z,5.05
2022-11-25T21:17:49.721Z,4.72
2022-11-25T21:20:18.531Z,5.82
2022-11-25T21:22:52.133Z,4.65
2022-11-25T21:25:23.576Z,4.72
2022-11-25T21:27:52.113Z,5.28
2022-11-25T21:30:22.123Z,4.65
2022-11-25T21:32:55.786Z,5.28
2022-11-25T21:35:29.937Z,6.65
2022-11-25T21:38:00.016Z,5.35
2022-11-25T21:40:37.584Z,6.35
2022-11-25T21:43:07.098Z,9.65
2022-11-25T21:45:34.864Z,9.55
2022-11-25T21:48:02.619Z,7.07
2022-11-25T21:50:31.138Z,5.88
2022-11-25T21:53:00.928Z,6.25
2022-11-25T21:55:28.824Z,5.57
2022-11-25T21:57:56.618Z,5.85
2022-11-25T22:00:26.315Z,6.00
2022-11-25T22:02:54.488Z,5.78
2022-11-25T22:05:25.525Z,5.68
2022-11-25T22:07:54.900Z,6.45
2022-11-25T22:10:24.310Z,5.70
2022-11-25T22:12:52.137Z,5.90
2022-11-25T22:15:22.724Z,6.68
2022-11-25T22:17:53.254Z,5.95
2022-11-25T22:20:33.254Z,6.20
2022-11-25T22:23:01.853Z,5.80
2022-11-25T22:25:33.606Z,5.97
2022-11-25T22:28:01.419Z,5.85
2022-11-25T22:30:29.188Z,6.20
2022-11-25T22:33:03.760Z,5.28
2022-11-25T22:35:41.038Z,5.80
2022-11-25T22:38:14.636Z,5.90
2022-11-25T22:40:46.214Z,6.28
2022-11-25T22:43:17.967Z,5.85
2022-11-25T22:45:46.582Z,5.70
2022-11-25T22:48:17.071Z,5.28
2022-11-25T22:50:46.418Z,5.10
2022-11-25T22:53:16.739Z,5.63
2022-11-25T22:55:46.787Z,5.63
2022-11-25T22:58:15.619Z,5.20
2022-11-25T23:00:45.809Z,5.40
2022-11-25T23:03:18.727Z,5.07
2022-11-25T23:05:47.093Z,4.88
2022-11-25T23:08:17.401Z,5.65
2022-11-25T23:10:47.377Z,4.88
2022-11-25T23:13:17.089Z,5.28
2022-11-25T23:15:48.419Z,5.05
2022-11-25T23:18:20.054Z,4.93
2022-11-25T23:20:48.552Z,5.40
2022-11-25T23:23:18.945Z,4.93
2022-11-25T23:25:49.028Z,5.20
2022-11-25T23:28:17.651Z,5.13
2022-11-25T23:30:49.808Z,5.53
2022-11-25T23:33:22.686Z,5.15
2022-11-25T23:35:50.516Z,5.40
2022-11-25T23:38:23.449Z,5.43
2022-11-25T23:40:52.688Z,5.03
2022-11-25T23:43:20.819Z,5.50
2022-11-25T23:45:52.209Z,4.85
2022-11-25T23:48:22.201Z,5.05
2022-11-25T23:50:50.439Z,5.25
2022-11-25T23:53:24.650Z,5.03
2022-11-25T23:55:54.367Z,4.75
2022-11-25T23:58:23.726Z,5.30
